createdAt,value
2022-12-17T00:03:31.851Z,15.77
2022-12-17T00:08:42.061Z,16.23
2022-12-17T00:13:52.452Z,17.90
2022-12-17T00:19:02.887Z,12.67
2022-12-17T00:24:13.382Z,13.47
2022-12-17T00:29:24.667Z,14.43
2022-12-17T00:34:35.011Z,14.67
2022-12-17T00:45:16.880Z,14.70
2022-12-17T00:50:27.263Z,13.27
2022-12-17T00:55:37.640Z,11.73
2022-12-17T01:00:47.975Z,12.73
2022-12-17T01:11:27.829Z,12.77
2022-12-17T01:16:38.226Z,14.30
2022-12-17T01:21:48.626Z,12.97
2022-12-17T01:26:58.907Z,13.43
2022-12-17T01:32:09.315Z,13.43
2022-12-17T01:37:19.667Z,16.37
2022-12-17T01:42:32.524Z,13.93
2022-12-17T01:47:50.509Z,11.83
2022-12-17T01:58:25.152Z,13.13
2022-12-17T02:03:37.869Z,14.47
2022-12-17T02:08:55.423Z,14.93
2022-12-17T02:32:29.151Z,15.30
2022-12-17T02:37:39.473Z,13.37
2022-12-17T02:42:51.476Z,14.10
2022-12-17T02:48:03.407Z,15.30
2022-12-17T02:53:18.063Z,17.40
2022-12-17T02:58:28.342Z,14.50
2022-12-17T03:03:39.896Z,16.33
2022-12-17T03:08:50.219Z,15.90
2022-12-17T03:14:00.610Z,14.07
2022-12-17T03:19:11.243Z,14.57
2022-12-17T03:24:21.591Z,12.30
2022-12-17T03:29:31.980Z,13.70
2022-12-17T03:34:56.095Z,14.57
2022-12-17T03:40:06.586Z,15.47
2022-12-17T03:45:16.727Z,13.00
2022-12-17T03:50:27.731Z,14.47
2022-12-17T03:55:38.093Z,16.77
2022-12-17T04:00:48.438Z,16.83
2022-12-17T04:05:58.813Z,18.50
2022-12-17T04:11:09.096Z,14.63
2022-12-17T04:16:19.939Z,15.90
2022-12-17T04:21:30.459Z,16.80
2022-12-17T04:26:40.862Z,17.03
2022-12-17T04:31:51.183Z,15.07
2022-12-17T04:37:01.511Z,13.73
2022-12-17T04:42:11.850Z,14.50
2022-12-17T04:47:22.228Z,12.20
2022-12-17T04:52:32.471Z,15.70
2022-12-17T04:57:42.783Z,14.07
2022-12-17T05:08:28.000Z,14.67
2022-12-17T05:13:38.798Z,14.70
2022-12-17T05:18:51.684Z,14.07
2022-12-17T05:34:51.542Z,16.30
2022-12-17T05:40:04.608Z,17.97
2022-12-17T05:45:39.650Z,18.33
2022-12-17T05:50:53.872Z,17.73
2022-12-17T05:56:08.679Z,13.87
2022-12-17T06:01:24.438Z,15.37
2022-12-17T06:06:35.392Z,13.07
2022-12-17T06:11:47.365Z,17.50
2022-12-17T06:17:01.127Z,18.00
2022-12-17T06:22:12.349Z,16.47
2022-12-17T06:27:23.558Z,14.60
2022-12-17T06:32:34.687Z,16.07
2022-12-17T06:48:38.770Z,15.90
2022-12-17T06:53:56.768Z,16.63
2022-12-17T06:59:14.744Z,16.40
2022-12-17T07:04:34.058Z,17.30
2022-12-17T07:09:44.447Z,15.10
2022-12-17T07:20:20.991Z,17.50
2022-12-17T07:31:01.649Z,16.43
2022-12-17T07:41:38.676Z,18.13
2022-12-17T07:52:16.728Z,16.87
2022-12-17T07:57:29.310Z,17.73
2022-12-17T08:08:04.083Z,14.73
2022-12-17T08:18:53.941Z,14.60
2022-12-17T08:29:29.691Z,14.57
2022-12-17T08:40:08.813Z,16.07
2022-12-17T08:45:20.675Z,16.20
2022-12-17T09:01:28.328Z,15.60
2022-12-17T09:06:43.192Z,16.97
2022-12-17T09:17:25.814Z,16.10
2022-12-17T09:22:37.474Z,13.13
2022-12-17T09:38:40.416Z,13.47
2022-12-17T09:44:26.562Z,15.30
2022-12-17T09:49:48.007Z,13.60
2022-12-17T09:55:06.558Z,19.33
2022-12-17T10:00:17.737Z,15.77
2022-12-17T10:05:47.915Z,15.30
2022-12-17T10:11:05.385Z,17.47
2022-12-17T10:16:16.271Z,18.63
2022-12-17T10:21:32.611Z,17.87
2022-12-17T10:26:52.504Z,19.23
2022-12-17T10:32:03.071Z,20.20
2022-12-17T10:37:16.105Z,17.23
2022-12-17T10:42:56.852Z,19.23
2022-12-17T10:48:08.256Z,18.13
2022-12-17T11:10:14.561Z,20.63
2022-12-17T11:15:50.082Z,21.07
2022-12-17T11:21:14.265Z,20.60
2022-12-17T11:26:34.727Z,17.60
2022-12-17T11:37:59.753Z,16.00
2022-12-17T11:43:45.724Z,18.63
2022-12-17T11:55:43.903Z,16.10
2022-12-17T12:07:18.396Z,18.77
2022-12-17T12:12:59.079Z,15.40
2022-12-17T12:18:48.826Z,20.00
2022-12-17T12:24:22.835Z,15.33
2022-12-17T12:35:56.094Z,19.30
2022-12-17T12:41:29.382Z,16.43
2022-12-17T12:47:11.978Z,17.87
2022-12-17T12:52:25.815Z,18.13
2022-12-17T12:57:56.483Z,14.43
2022-12-17T13:03:08.200Z,15.80
2022-12-17T13:08:24.320Z,17.60
2022-12-17T13:13:29.976Z,16.17
2022-12-17T13:18:38.678Z,18.30
2022-12-17T13:28:56.068Z,18.77
2022-12-17T13:34:42.315Z,16.90
2022-12-17T13:40:08.328Z,13.67
2022-12-17T13:45:02.533Z,10.77
2022-12-17T14:00:31.172Z,11.13
2022-12-17T14:05:40.370Z,12.80
2022-12-17T14:10:33.291Z,12.17
2022-12-17T14:15:33.612Z,10.90
2022-12-17T14:20:43.928Z,11.93
2022-12-17T14:47:31.236Z,14.83
2022-12-17T15:29:33.626Z,22.47
2022-12-17T16:05:04.144Z,18.43
2022-12-17T16:20:12.411Z,24.87
2022-12-17T17:16:35.008Z,31.77
2022-12-17T17:21:34.583Z,28.33
2022-12-17T17:41:59.325Z,33.63
2022-12-17T17:46:57.787Z,35.33
2022-12-17T18:27:54.625Z,36.40
2022-12-17T19:34:29.474Z,39.07
2022-12-17T19:39:21.695Z,36.00
2022-12-17T19:59:43.754Z,40.20
2022-12-17T20:14:52.651Z,42.60
2022-12-17T20:50:30.280Z,36.97
2022-12-17T20:55:31.353Z,35.17
2022-12-17T21:10:36.247Z,37.80
2022-12-17T21:20:41.803Z,44.23
2022-12-17T21:46:00.551Z,43.90
2022-12-17T21:51:00.830Z,42.33
2022-12-17T21:55:57.519Z,41.77
2022-12-17T22:05:59.806Z,43.80
2022-12-17T22:21:05.976Z,45.73
2022-12-17T22:25:59.069Z,44.27
2022-12-17T22:31:17.584Z,45.23
2022-12-17T22:46:51.188Z,46.10
2022-12-17T22:51:53.050Z,43.13
2022-12-17T23:12:24.800Z,41.47
2022-12-17T23:17:17.118Z,42.63
2022-12-17T23:22:16.227Z,44.33
2022-12-17T23:47:42.836Z,43.47
